createdAt,value
2018-05-31T00:00:05.636Z,25.20
2018-05-31T00:02:38.822Z,27.00
2018-05-31T00:05:11.595Z,26.87
2018-05-31T00:07:45.002Z,26.42
2018-05-31T00:10:18.375Z,24.87
2018-05-31T00:12:51.730Z,24.42
2018-05-31T00:15:24.145Z,24.17
2018-05-31T00:17:56.774Z,24.05
2018-05-31T00:20:29.204Z,25.12
2018-05-31T00:23:01.598Z,24.48
2018-05-31T00:25:34.092Z,24.33
2018-05-31T00:28:07.112Z,26.00
2018-05-31T00:30:46.719Z,25.05
2018-05-31T00:33:20.144Z,25.62
2018-05-31T00:35:52.583Z,24.17
2018-05-31T00:38:25.173Z,24.45
2018-05-31T00:40:57.739Z,25.15
2018-05-31T00:43:30.239Z,24.00
2018-05-31T00:46:02.873Z,24.30
2018-05-31T00:48:35.303Z,25.55
2018-05-31T00:51:09.181Z,27.67
2018-05-31T00:53:41.620Z,24.40
2018-05-31T00:56:16.289Z,24.55
2018-05-31T00:58:49.522Z,25.45
2018-05-31T01:01:22.727Z,25.85
2018-05-31T01:03:55.343Z,24.70
2018-05-31T01:06:27.764Z,24.40
2018-05-31T01:09:00.400Z,25.52
2018-05-31T01:11:32.803Z,25.23
2018-05-31T01:14:05.418Z,25.35
2018-05-31T01:16:37.962Z,25.45
2018-05-31T01:19:10.334Z,24.37
2018-05-31T01:21:42.733Z,24.73
2018-05-31T01:24:15.513Z,25.48
2018-05-31T01:26:48.020Z,27.40
2018-05-31T01:29:21.348Z,27.13
2018-05-31T01:31:54.012Z,27.98
2018-05-31T01:34:26.573Z,27.13
2018-05-31T01:36:59.169Z,28.55
2018-05-31T01:39:31.763Z,27.42
2018-05-31T01:42:04.269Z,27.70
2018-05-31T01:44:37.390Z,28.67
2018-05-31T01:47:10.258Z,28.70
2018-05-31T01:49:42.804Z,26.42
2018-05-31T01:52:15.622Z,26.52
2018-05-31T01:54:48.020Z,26.80
2018-05-31T01:57:20.561Z,26.83
2018-05-31T01:59:53.324Z,25.67
2018-05-31T02:02:25.842Z,26.77
2018-05-31T02:04:59.125Z,24.83
2018-05-31T02:07:31.544Z,27.13
2018-05-31T02:10:04.040Z,26.73
2018-05-31T02:12:36.722Z,24.60
2018-05-31T02:15:09.391Z,24.83
2018-05-31T02:17:42.013Z,24.65
2018-05-31T02:20:15.344Z,25.12
2018-05-31T02:22:47.664Z,24.67
2018-05-31T02:25:20.916Z,26.92
2018-05-31T02:27:53.458Z,25.10
2018-05-31T02:30:26.643Z,24.90
2018-05-31T02:32:59.174Z,23.58
2018-05-31T02:35:31.838Z,25.08
2018-05-31T02:38:04.968Z,25.60
2018-05-31T02:40:37.338Z,26.17
2018-05-31T02:43:09.763Z,27.85
2018-05-31T02:45:43.144Z,25.80
2018-05-31T02:48:16.343Z,26.02
2018-05-31T02:50:49.078Z,25.27
2018-05-31T02:53:21.787Z,26.15
2018-05-31T02:55:54.318Z,25.65
2018-05-31T02:58:26.702Z,24.95
2018-05-31T03:00:59.162Z,23.73
2018-05-31T03:03:39.029Z,26.58
2018-05-31T03:06:11.633Z,24.23
2018-05-31T03:08:44.929Z,24.05
2018-05-31T03:11:17.360Z,23.27
2018-05-31T03:13:50.006Z,25.45
2018-05-31T03:16:22.558Z,23.92
2018-05-31T03:18:55.808Z,25.20
2018-05-31T03:21:28.262Z,25.25
2018-05-31T03:24:00.754Z,25.98
2018-05-31T03:26:33.430Z,25.37
2018-05-31T03:29:06.690Z,26.15
2018-05-31T03:31:39.154Z,26.48
2018-05-31T03:34:11.805Z,26.80
2018-05-31T03:36:44.286Z,23.55
2018-05-31T03:39:16.819Z,23.27
2018-05-31T03:41:49.405Z,23.75
2018-05-31T03:44:22.055Z,23.05
2018-05-31T03:46:54.541Z,23.52
2018-05-31T03:49:26.878Z,23.33
2018-05-31T03:51:59.615Z,23.50
2018-05-31T03:54:32.291Z,24.30
2018-05-31T03:57:04.929Z,24.92
2018-05-31T03:59:38.076Z,24.05
2018-05-31T04:02:11.274Z,24.95
2018-05-31T04:04:43.599Z,23.50
2018-05-31T04:07:16.139Z,24.02
2018-05-31T04:09:49.488Z,24.17
2018-05-31T04:12:22.125Z,24.08
2018-05-31T04:14:54.619Z,25.23
2018-05-31T04:17:28.141Z,25.85
2018-05-31T04:20:00.822Z,23.92
2018-05-31T04:22:34.153Z,24.60
2018-05-31T04:25:06.608Z,24.80
2018-05-31T04:27:39.080Z,24.75
2018-05-31T04:30:11.548Z,25.08
2018-05-31T04:32:44.168Z,23.62
2018-05-31T04:35:16.569Z,23.52
2018-05-31T04:37:49.736Z,23.80
2018-05-31T04:40:22.298Z,23.33
2018-05-31T04:42:54.825Z,23.85
2018-05-31T04:45:27.455Z,23.02
2018-05-31T04:48:00.627Z,24.70
2018-05-31T04:50:33.058Z,24.63
2018-05-31T04:53:05.420Z,23.70
2018-05-31T04:55:37.797Z,22.58
2018-05-31T04:58:11.114Z,23.23
2018-05-31T05:00:45.408Z,22.80
2018-05-31T05:03:17.928Z,22.37
2018-05-31T05:05:50.523Z,22.77
2018-05-31T05:08:24.268Z,21.23
2018-05-31T05:10:56.663Z,21.50
2018-05-31T05:13:29.112Z,20.95
2018-05-31T05:16:01.486Z,20.98
2018-05-31T05:18:34.753Z,20.42
2018-05-31T05:21:08.254Z,20.80
2018-05-31T05:23:40.919Z,20.65
2018-05-31T05:26:13.341Z,20.75
2018-05-31T05:28:45.802Z,21.90
2018-05-31T05:31:18.497Z,19.67
2018-05-31T05:33:50.844Z,19.73
2018-05-31T05:36:24.724Z,18.95
2018-05-31T05:38:57.244Z,19.65
2018-05-31T05:41:29.660Z,20.25
2018-05-31T05:44:02.405Z,19.67
2018-05-31T05:46:35.808Z,19.33
2018-05-31T05:49:08.498Z,20.37
2018-05-31T05:51:41.003Z,21.23
2018-05-31T05:54:13.440Z,22.35
2018-05-31T05:56:45.920Z,21.25
2018-05-31T05:59:18.279Z,19.58
2018-05-31T06:01:50.904Z,20.52
2018-05-31T06:04:24.539Z,20.62
2018-05-31T06:06:57.146Z,20.60
2018-05-31T06:09:30.539Z,20.20
2018-05-31T06:12:04.172Z,20.35
2018-05-31T06:14:37.431Z,20.30
2018-05-31T06:17:15.164Z,19.05
2018-05-31T06:19:47.678Z,19.73
2018-05-31T06:22:20.973Z,19.58
2018-05-31T06:24:53.577Z,19.17
2018-05-31T06:27:26.790Z,19.45
2018-05-31T06:29:59.290Z,19.52
2018-05-31T06:32:31.889Z,19.30
2018-05-31T06:35:04.652Z,19.77
2018-05-31T06:37:37.916Z,19.20
2018-05-31T06:40:10.454Z,19.50
2018-05-31T06:42:43.446Z,19.62
2018-05-31T06:45:16.140Z,18.92
2018-05-31T06:47:48.825Z,17.62
2018-05-31T06:50:22.474Z,17.55
2018-05-31T06:52:55.070Z,18.98
2018-05-31T06:55:27.568Z,17.75
2018-05-31T06:58:00.869Z,18.50
2018-05-31T07:00:33.444Z,17.60
2018-05-31T07:03:05.915Z,18.67
2018-05-31T07:05:38.310Z,17.23
2018-05-31T07:08:10.782Z,17.08
2018-05-31T07:10:44.154Z,17.83
2018-05-31T07:13:17.596Z,18.35
2018-05-31T07:15:50.258Z,17.27
2018-05-31T07:18:22.831Z,17.67
2018-05-31T07:20:55.484Z,15.30
2018-05-31T07:23:29.424Z,16.08
2018-05-31T07:26:01.900Z,15.93
2018-05-31T07:28:35.274Z,15.93
2018-05-31T07:31:08.717Z,14.65
2018-05-31T07:33:41.311Z,14.98
2018-05-31T07:36:14.039Z,15.05
2018-05-31T07:38:46.737Z,13.82
2018-05-31T07:41:19.215Z,14.30
2018-05-31T07:43:52.095Z,14.55
2018-05-31T07:46:24.783Z,13.70
2018-05-31T07:48:57.438Z,12.98
2018-05-31T07:51:30.141Z,12.90
2018-05-31T07:54:02.911Z,12.95
2018-05-31T07:56:35.488Z,14.02
2018-05-31T07:59:08.614Z,12.93
2018-05-31T08:01:41.980Z,14.18
2018-05-31T08:04:15.144Z,14.50
2018-05-31T08:06:47.638Z,13.55
2018-05-31T08:09:20.433Z,14.00
2018-05-31T08:11:53.786Z,13.10
2018-05-31T08:14:26.279Z,14.45
2018-05-31T08:17:00.171Z,13.98
2018-05-31T08:19:33.556Z,13.10
2018-05-31T08:22:06.044Z,13.13
2018-05-31T08:24:38.746Z,12.52
2018-05-31T08:27:11.190Z,11.82
2018-05-31T08:29:43.901Z,12.30
2018-05-31T08:32:16.621Z,12.02
2018-05-31T08:34:49.176Z,12.15
2018-05-31T08:37:21.749Z,11.90
2018-05-31T08:39:54.410Z,11.18
2018-05-31T08:42:26.896Z,10.65
2018-05-31T08:44:59.402Z,10.50
2018-05-31T08:47:32.010Z,10.68
2018-05-31T08:50:12.484Z,9.43
2018-05-31T08:52:44.936Z,9.77
2018-05-31T08:55:18.137Z,9.70
2018-05-31T08:57:50.635Z,9.95
2018-05-31T09:00:23.449Z,9.00
2018-05-31T09:02:56.021Z,9.35
2018-05-31T09:05:29.522Z,10.43
2018-05-31T09:08:02.040Z,10.70
2018-05-31T09:10:35.491Z,10.77
2018-05-31T09:13:08.114Z,9.10
2018-05-31T09:15:41.405Z,11.52
2018-05-31T09:18:14.038Z,8.70
2018-05-31T09:20:46.719Z,9.10
2018-05-31T09:23:19.255Z,8.93
2018-05-31T09:25:51.734Z,9.80
2018-05-31T09:28:24.441Z,9.95
2018-05-31T09:30:57.161Z,8.98
2018-05-31T09:33:29.735Z,11.10
2018-05-31T09:36:02.404Z,9.15
2018-05-31T09:38:35.060Z,9.40
2018-05-31T09:41:07.441Z,9.25
2018-05-31T09:43:40.254Z,8.18
2018-05-31T09:46:12.739Z,8.10
2018-05-31T09:48:45.164Z,10.05
2018-05-31T09:51:17.746Z,10.55
2018-05-31T09:53:50.989Z,8.10
2018-05-31T09:56:24.468Z,8.73
2018-05-31T09:58:57.184Z,9.18
2018-05-31T10:01:30.344Z,9.02
2018-05-31T10:04:02.849Z,10.23
2018-05-31T10:06:35.611Z,10.95
2018-05-31T10:09:08.250Z,8.60
2018-05-31T10:11:40.894Z,8.18
2018-05-31T10:14:13.619Z,7.97
2018-05-31T10:16:46.315Z,8.00
2018-05-31T10:19:19.064Z,8.50
2018-05-31T10:21:51.629Z,7.82
2018-05-31T10:24:24.227Z,8.20
2018-05-31T10:26:56.840Z,10.70
2018-05-31T10:29:30.027Z,8.15
2018-05-31T10:32:02.472Z,7.97
2018-05-31T10:34:34.927Z,8.27
2018-05-31T10:37:07.591Z,8.43
2018-05-31T10:39:40.284Z,8.10
2018-05-31T10:42:13.559Z,7.85
2018-05-31T10:44:46.245Z,7.95
2018-05-31T10:47:18.996Z,7.60
2018-05-31T10:49:51.744Z,7.95
2018-05-31T10:52:24.410Z,12.85
2018-05-31T10:54:58.339Z,8.70
2018-05-31T10:57:31.740Z,10.45
2018-05-31T11:00:04.515Z,8.48
2018-05-31T11:02:36.946Z,7.90
2018-05-31T11:05:09.545Z,8.43
2018-05-31T11:07:42.151Z,7.97
2018-05-31T11:10:15.556Z,10.55
2018-05-31T11:12:48.961Z,8.68
2018-05-31T11:15:21.622Z,8.40
2018-05-31T11:17:54.288Z,8.45
2018-05-31T11:20:26.920Z,8.70
2018-05-31T11:23:00.194Z,8.63
2018-05-31T11:25:32.981Z,8.82
2018-05-31T11:28:06.412Z,9.13
2018-05-31T11:30:40.211Z,8.50
2018-05-31T11:33:12.962Z,9.05
2018-05-31T11:35:46.342Z,9.77
2018-05-31T11:38:18.978Z,8.57
2018-05-31T11:40:51.494Z,9.30
2018-05-31T11:43:24.149Z,8.32
2018-05-31T11:45:56.777Z,9.55
2018-05-31T11:48:29.411Z,9.07
2018-05-31T11:51:02.260Z,8.85
2018-05-31T11:53:34.771Z,8.43
2018-05-31T11:56:07.486Z,9.73
2018-05-31T11:58:40.196Z,8.30
2018-05-31T12:01:13.002Z,8.48
2018-05-31T12:03:45.595Z,8.98
2018-05-31T12:06:18.302Z,9.07
2018-05-31T12:08:50.940Z,8.93
2018-05-31T12:11:24.318Z,9.43
2018-05-31T12:13:57.461Z,8.95
2018-05-31T12:16:30.120Z,8.63
2018-05-31T12:19:02.771Z,8.60
2018-05-31T12:21:35.510Z,9.13
2018-05-31T12:24:08.164Z,8.65
2018-05-31T12:26:40.831Z,9.52
2018-05-31T12:29:13.313Z,8.57
2018-05-31T12:31:45.881Z,9.40
2018-05-31T12:34:18.545Z,9.45
2018-05-31T12:36:51.970Z,9.57
2018-05-31T12:39:24.479Z,9.32
2018-05-31T12:41:57.856Z,9.07
2018-05-31T12:44:31.337Z,9.55
2018-05-31T12:47:04.765Z,10.88
2018-05-31T12:49:37.366Z,8.68
2018-05-31T12:52:09.836Z,8.68
2018-05-31T12:54:42.725Z,8.73
2018-05-31T12:57:15.242Z,8.95
2018-05-31T12:59:47.866Z,9.20
2018-05-31T13:02:20.492Z,8.90
2018-05-31T13:04:53.821Z,8.50
2018-05-31T13:07:26.221Z,8.55
2018-05-31T13:09:58.617Z,12.75
2018-05-31T13:12:31.111Z,10.90
2018-05-31T13:15:03.860Z,10.02
2018-05-31T13:17:37.227Z,8.90
2018-05-31T13:20:09.964Z,7.82
2018-05-31T13:22:42.766Z,7.60
2018-05-31T13:25:15.973Z,8.30
2018-05-31T13:27:48.486Z,7.80
2018-05-31T13:30:21.206Z,7.70
2018-05-31T13:32:55.224Z,7.18
2018-05-31T13:35:27.775Z,7.47
2018-05-31T13:38:01.348Z,7.90
2018-05-31T13:40:33.880Z,8.65
2018-05-31T13:43:07.112Z,7.85
2018-05-31T13:45:39.723Z,8.07
2018-05-31T13:48:12.129Z,8.32
2018-05-31T13:50:45.884Z,8.15
2018-05-31T13:53:18.539Z,7.62
2018-05-31T13:55:51.165Z,8.00
2018-05-31T13:58:23.738Z,8.27
2018-05-31T14:00:57.006Z,7.70
2018-05-31T14:03:30.266Z,7.75
2018-05-31T14:06:02.874Z,8.43
2018-05-31T14:08:35.505Z,8.45
2018-05-31T14:11:09.036Z,8.50
2018-05-31T14:13:41.727Z,7.32
2018-05-31T14:16:14.250Z,7.95
2018-05-31T14:18:47.510Z,7.18
2018-05-31T14:21:20.175Z,8.70
2018-05-31T14:23:52.650Z,7.50
2018-05-31T14:26:25.316Z,7.30
2018-05-31T14:28:58.063Z,7.15
2018-05-31T14:31:30.661Z,7.55
2018-05-31T14:34:03.999Z,8.35
2018-05-31T14:36:36.576Z,9.52
2018-05-31T14:39:09.207Z,8.57
2018-05-31T14:41:41.886Z,7.62
2018-05-31T14:44:14.879Z,7.65
2018-05-31T14:46:48.121Z,8.10
2018-05-31T14:49:21.504Z,8.38
2018-05-31T14:51:54.931Z,8.75
2018-05-31T14:54:27.700Z,9.90
2018-05-31T14:57:00.266Z,8.88
2018-05-31T14:59:33.201Z,9.80
2018-05-31T15:02:05.655Z,12.95
2018-05-31T15:04:38.146Z,11.43
2018-05-31T15:07:11.861Z,9.85
2018-05-31T15:09:45.142Z,12.32
2018-05-31T15:12:18.371Z,9.60
2018-05-31T15:14:51.257Z,10.98
2018-05-31T15:17:23.838Z,8.57
2018-05-31T15:19:56.561Z,10.63
2018-05-31T15:22:29.113Z,7.82
2018-05-31T15:25:01.844Z,8.25
2018-05-31T15:27:34.617Z,9.35
2018-05-31T15:30:08.132Z,8.60
2018-05-31T15:32:40.733Z,8.43
2018-05-31T15:35:13.527Z,8.88
2018-05-31T15:37:46.196Z,8.73
2018-05-31T15:40:18.681Z,10.63
2018-05-31T15:42:54.587Z,10.50
2018-05-31T15:45:27.264Z,8.30
2018-05-31T15:48:00.431Z,8.52
2018-05-31T15:50:32.981Z,8.35
2018-05-31T15:53:05.541Z,9.15
2018-05-31T15:55:38.857Z,7.68
2018-05-31T15:58:11.437Z,7.80
2018-05-31T16:00:44.138Z,7.97
2018-05-31T16:03:16.663Z,8.10
2018-05-31T16:05:49.662Z,8.25
2018-05-31T16:08:22.242Z,10.70
2018-05-31T16:10:55.063Z,8.80
2018-05-31T16:13:27.552Z,9.43
2018-05-31T16:16:00.272Z,10.48
2018-05-31T16:18:33.011Z,9.82
2018-05-31T16:21:05.570Z,9.73
2018-05-31T16:23:38.230Z,10.98
2018-05-31T16:26:11.076Z,14.27
2018-05-31T16:28:44.447Z,8.57
2018-05-31T16:31:17.042Z,8.50
2018-05-31T16:33:49.786Z,10.07
2018-05-31T16:36:22.379Z,9.98
2018-05-31T16:38:56.633Z,9.38
2018-05-31T16:41:29.222Z,11.02
2018-05-31T16:44:01.926Z,9.50
2018-05-31T16:46:34.516Z,10.02
2018-05-31T16:49:07.116Z,14.05
2018-05-31T16:51:39.881Z,9.63
2018-05-31T16:54:12.602Z,10.07
2018-05-31T16:56:45.260Z,10.23
2018-05-31T16:59:18.067Z,10.10
2018-05-31T17:01:50.681Z,10.57
2018-05-31T17:04:23.224Z,9.90
2018-05-31T17:06:55.923Z,9.38
2018-05-31T17:09:28.535Z,10.07
2018-05-31T17:12:01.248Z,9.25
2018-05-31T17:14:33.891Z,10.38
2018-05-31T17:17:06.529Z,12.30
2018-05-31T17:19:39.216Z,11.50
2018-05-31T17:22:11.895Z,10.82
2018-05-31T17:24:44.612Z,13.05
2018-05-31T17:27:17.354Z,10.52
2018-05-31T17:29:50.226Z,10.50
2018-05-31T17:32:23.224Z,10.45
2018-05-31T17:34:56.651Z,10.10
2018-05-31T17:37:29.864Z,11.00
2018-05-31T17:40:02.644Z,11.10
2018-05-31T17:42:35.073Z,11.90
2018-05-31T17:45:07.960Z,11.18
2018-05-31T17:47:40.695Z,10.63
2018-05-31T17:50:14.141Z,11.25
2018-05-31T17:52:46.673Z,11.82
2018-05-31T17:55:19.999Z,12.02
2018-05-31T17:57:52.511Z,10.15
2018-05-31T18:00:25.703Z,10.20
2018-05-31T18:03:00.096Z,11.20
2018-05-31T18:05:32.707Z,10.43
2018-05-31T18:08:06.081Z,11.27
2018-05-31T18:10:39.291Z,10.65
2018-05-31T18:13:12.066Z,10.65
2018-05-31T18:15:50.762Z,9.60
2018-05-31T18:18:23.665Z,10.20
2018-05-31T18:20:58.263Z,12.20
2018-05-31T18:23:30.710Z,10.68
2018-05-31T18:26:08.842Z,11.00
2018-05-31T18:28:42.131Z,14.35
2018-05-31T18:31:14.861Z,12.45
2018-05-31T18:33:48.097Z,10.57
2018-05-31T18:36:21.720Z,10.38
2018-05-31T18:38:54.791Z,11.40
2018-05-31T18:41:27.697Z,10.85
2018-05-31T18:44:00.877Z,9.93
2018-05-31T18:46:33.501Z,12.05
2018-05-31T18:49:06.258Z,11.27
2018-05-31T18:51:38.737Z,12.63
2018-05-31T18:54:12.299Z,9.80
2018-05-31T18:56:45.527Z,9.70
2018-05-31T18:59:18.231Z,11.00
2018-05-31T19:01:50.981Z,9.85
2018-05-31T19:04:23.597Z,11.43
2018-05-31T19:06:56.661Z,10.80
2018-05-31T19:09:36.211Z,10.20
2018-05-31T19:12:10.123Z,11.12
2018-05-31T19:14:43.225Z,10.18
2018-05-31T19:17:15.785Z,11.35
2018-05-31T19:19:54.473Z,11.65
2018-05-31T19:22:28.256Z,12.52
2018-05-31T19:25:07.021Z,11.82
2018-05-31T19:27:39.996Z,13.07
2018-05-31T19:30:19.228Z,11.63
2018-05-31T19:32:53.655Z,13.30
2018-05-31T19:35:33.972Z,12.45
2018-05-31T19:38:06.602Z,13.93
2018-05-31T19:40:39.469Z,11.57
2018-05-31T19:43:17.905Z,13.77
2018-05-31T19:45:51.842Z,14.32
2018-05-31T19:48:25.302Z,13.60
2018-05-31T19:50:58.580Z,13.23
2018-05-31T19:53:37.160Z,15.70
2018-05-31T19:56:10.443Z,12.98
2018-05-31T19:58:49.318Z,13.80
2018-05-31T20:01:27.765Z,14.18
2018-05-31T20:04:00.251Z,13.70
2018-05-31T20:06:33.137Z,14.38
2018-05-31T20:09:05.777Z,17.37
2018-05-31T20:11:39.345Z,14.15
2018-05-31T20:14:11.836Z,13.40
2018-05-31T20:16:44.285Z,13.90
2018-05-31T20:19:17.036Z,14.27
2018-05-31T20:21:49.871Z,13.40
2018-05-31T20:24:22.413Z,13.43
2018-05-31T20:26:55.202Z,14.98
2018-05-31T20:29:27.843Z,14.82
2018-05-31T20:32:00.571Z,15.02
2018-05-31T20:34:33.202Z,13.75
2018-05-31T20:37:06.824Z,14.50
2018-05-31T20:39:39.280Z,13.95
2018-05-31T20:42:12.759Z,14.55
2018-05-31T20:44:45.551Z,14.43
2018-05-31T20:47:18.287Z,14.63
2018-05-31T20:49:50.937Z,13.88
2018-05-31T20:52:23.709Z,14.80
2018-05-31T20:54:56.524Z,13.55
2018-05-31T20:57:29.859Z,14.48
2018-05-31T21:00:02.755Z,21.23
2018-05-31T21:02:35.580Z,13.73
2018-05-31T21:05:08.416Z,14.13
2018-05-31T21:07:41.058Z,17.15
2018-05-31T21:10:13.922Z,14.70
2018-05-31T21:12:47.596Z,14.30
2018-05-31T21:15:20.546Z,14.60
2018-05-31T21:17:53.263Z,13.20
2018-05-31T21:20:25.961Z,16.65
2018-05-31T21:22:58.637Z,14.68
2018-05-31T21:25:31.216Z,16.17
2018-05-31T21:28:03.967Z,14.55
2018-05-31T21:30:36.649Z,14.40
2018-05-31T21:33:09.328Z,14.38
2018-05-31T21:35:42.252Z,13.38
2018-05-31T21:38:14.661Z,14.68
2018-05-31T21:40:47.472Z,14.87
2018-05-31T21:43:20.251Z,16.08
2018-05-31T21:45:52.852Z,14.25
2018-05-31T21:48:25.502Z,16.85
2018-05-31T21:50:58.472Z,14.75
2018-05-31T21:53:30.955Z,15.77
2018-05-31T21:56:04.298Z,16.02
2018-05-31T21:58:37.040Z,17.48
2018-05-31T22:01:10.355Z,18.48
2018-05-31T22:03:43.221Z,17.50
2018-05-31T22:06:15.866Z,16.12
2018-05-31T22:08:48.684Z,16.60
2018-05-31T22:11:21.198Z,16.75
2018-05-31T22:13:53.850Z,17.77
2018-05-31T22:16:26.416Z,16.48
2018-05-31T22:19:00.131Z,15.63
2018-05-31T22:21:33.531Z,16.58
2018-05-31T22:24:06.535Z,15.15
2018-05-31T22:26:39.074Z,15.90
2018-05-31T22:29:11.491Z,17.27
2018-05-31T22:31:44.227Z,17.42
2018-05-31T22:34:17.016Z,16.35
2018-05-31T22:36:49.562Z,17.27
2018-05-31T22:39:22.138Z,18.12
2018-05-31T22:41:54.823Z,17.70
2018-05-31T22:44:27.495Z,18.10
2018-05-31T22:47:00.030Z,17.65
2018-05-31T22:49:32.558Z,17.65
2018-05-31T22:52:05.096Z,17.37
2018-05-31T22:54:37.841Z,17.85
2018-05-31T22:57:10.718Z,17.23
2018-05-31T22:59:43.274Z,17.35
2018-05-31T23:02:15.911Z,16.90
2018-05-31T23:04:48.647Z,22.40
2018-05-31T23:07:21.511Z,24.63
2018-05-31T23:09:54.117Z,25.58
2018-05-31T23:12:31.992Z,21.37
2018-05-31T23:15:05.262Z,20.15
2018-05-31T23:17:37.805Z,20.25
2018-05-31T23:20:10.757Z,21.23
2018-05-31T23:22:44.064Z,22.30
2018-05-31T23:25:16.723Z,23.70
2018-05-31T23:27:50.248Z,22.17
2018-05-31T23:30:22.793Z,24.30
2018-05-31T23:32:55.277Z,25.83
2018-05-31T23:35:28.031Z,22.92
2018-05-31T23:38:01.385Z,24.00
2018-05-31T23:40:33.930Z,21.70
2018-05-31T23:43:06.600Z,24.10
2018-05-31T23:45:39.199Z,24.00
2018-05-31T23:48:11.906Z,23.45
2018-05-31T23:50:44.536Z,26.27
2018-05-31T23:53:17.747Z,24.33
2018-05-31T23:55:51.455Z,22.83
2018-05-31T23:58:24.020Z,22.87
